Bayou Metro, Arkansas
Current Conditions -  °F | °C
As of 9:58 PM on Thursday 18 Dec 2014 (Local Time) from KLRF Reporting Station
Overcast Overcast  
Wind Chill: 41°   Ceiling: 600
Heat Index: 41°   Visibility: 8mi
Dew Point: 40°   Wind: 3mph
Humidity: 96%   Direction: 10°N
Pressure: 30.24"   Gusts: NA
Location:  34.7557°N, 91.9476°W
Report Text: KLRF 190358Z AUTO 01003KT 8SM OVC006 05/05 A3024 RMK AO2 SLP245 T00520046
Loading
Personal Weather Stations






























Interactive Weather Map New forecast layout! Learn more

10-Day Weather Forecast

Advertisements
Track Severe Weather on mobile